Terminal Aerodrome Forecast
Issued by NWS Indianapolis, IN

Home | Current Version | Previous Version | Text Only | Print | Product List | Glossary On
Versions: 1 2 3 4 5 6 7 8 9 10 11 12 13 14 15 16 17 18 19 20 21 22 23 24
291
FTUS43 KIND 250239 AAA
TAFIND
TAF AMD
KIND 250239Z 2503/2606 20007KT P6SM SCT250
     FM250900 16005KT P6SM VCSH BKN050 BKN150
     FM251600 19008KT P6SM SCT050 BKN150
     FM252000 21010KT P6SM VCTS BKN050CB OVC100=

USA.gov is the U.S. government's official web portal to all federal, state and local government web resources and services.